Time;durP1;ratioP1;P1;durP2;ratioP2;P2;SDS_P1;SDS_P2;PMS_P1;PMS_P2;Temp;Humidity;BMP_temperature;BMP_pressure;BME280_temperature;BME280_humidity;BME280_pressure;Samples;Min_cycle;Max_cycle;Signal;HPM_P1;HPM_P2
2022/03/31 00:01:17;;;;;;;30.13;11.70;;;;;;;;;;5033988;28;20068;-43
2022/03/31 00:03:42;;;;;;;27.75;11.20;;;;;;;;;;5033526;28;20009;-42
2022/03/31 00:06:07;;;;;;;30.27;11.90;;;;;;;;;;5033911;28;20396;-43
2022/03/31 00:08:33;;;;;;;28.70;12.25;;;;;;;;;;5033970;28;20075;-43
2022/03/31 00:10:58;;;;;;;29.52;10.77;;;;;;;;;;5033865;28;20422;-44
2022/03/31 00:13:25;;;;;;;25.77;10.93;;;;;;;;;;5033482;28;20028;-43
2022/03/31 00:15:53;;;;;;;25.88;11.30;;;;;;;;;;5033704;28;20072;-44
2022/03/31 00:18:18;;;;;;;24.35;10.45;;;;;;;;;;5033145;28;20026;-47
2022/03/31 00:20:44;;;;;;;27.50;10.93;;;;;;;;;;5033515;28;20027;-46
2022/03/31 00:23:09;;;;;;;27.42;11.57;;;;;;;;;;5033356;28;20080;-44
2022/03/31 00:25:35;;;;;;;21.55;11.68;;;;;;;;;;5047904;28;20132;-43
2022/03/31 00:28:03;;;;;;;21.30;10.55;;;;;;;;;;5053163;28;20025;-44
2022/03/31 00:30:28;;;;;;;20.75;10.52;;;;;;;;;;5053174;28;20020;-45
2022/03/31 00:32:53;;;;;;;22.77;10.98;;;;;;;;;;5033473;28;20380;-44
2022/03/31 00:35:19;;;;;;;28.13;11.52;;;;;;;;;;5033228;28;20072;-46
2022/03/31 00:37:45;;;;;;;28.00;11.35;;;;;;;;;;5032975;28;20465;-45
2022/03/31 00:40:12;;;;;;;34.83;10.85;;;;;;;;;;5033373;28;20092;-44
2022/03/31 00:42:41;;;;;;;21.35;11.63;;;;;;;;;;5033269;28;20519;-44
2022/03/31 00:45:17;;;;;;;24.58;10.98;;;;;;;;;;5033145;28;20021;-43
2022/03/31 00:47:42;;;;;;;24.80;11.13;;;;;;;;;;5032662;28;20026;-43
2022/03/31 00:50:08;;;;;;;28.15;11.30;;;;;;;;;;5033260;28;20022;-44
2022/03/31 00:52:33;;;;;;;22.13;10.98;;;;;;;;;;5032814;28;20107;-43
2022/03/31 00:54:59;;;;;;;25.48;10.43;;;;;;;;;;5032990;28;20057;-43
2022/03/31 00:57:24;;;;;;;20.80;9.48;;;;;;;;;;5032323;28;20026;-43
2022/03/31 00:59:50;;;;;;;21.88;10.48;;;;;;;;;;5033174;28;20017;-43
2022/03/31 01:02:15;;;;;;;24.13;10.05;;;;;;;;;;5033214;28;20449;-43
2022/03/31 01:04:40;;;;;;;22.73;10.43;;;;;;;;;;5032484;28;20402;-43
2022/03/31 01:07:07;;;;;;;23.63;10.45;;;;;;;;;;5032743;28;20049;-44
2022/03/31 01:09:32;;;;;;;21.85;10.43;;;;;;;;;;5032861;28;20052;-43
2022/03/31 01:11:58;;;;;;;25.75;11.25;;;;;;;;;;5032865;28;20021;-45
2022/03/31 01:14:24;;;;;;;24.25;10.10;;;;;;;;;;5031176;28;20025;-43
2022/03/31 01:16:49;;;;;;;24.65;11.10;;;;;;;;;;5032752;28;20025;-43
2022/03/31 01:19:14;;;;;;;22.77;9.57;;;;;;;;;;5031044;28;20021;-46
2022/03/31 01:21:41;;;;;;;26.15;12.02;;;;;;;;;;5032961;28;20083;-43
2022/03/31 01:24:07;;;;;;;27.15;12.23;;;;;;;;;;5032629;28;20032;-42
2022/03/31 01:26:34;;;;;;;24.20;10.02;;;;;;;;;;5032604;28;20034;-42
2022/03/31 01:28:59;;;;;;;28.52;13.15;;;;;;;;;;5032352;28;20021;-44
2022/03/31 01:31:25;;;;;;;29.08;11.05;;;;;;;;;;5047959;28;20032;-43
2022/03/31 01:33:50;;;;;;;24.42;10.90;;;;;;;;;;5072126;28;20021;-43
2022/03/31 01:36:15;;;;;;;26.55;11.45;;;;;;;;;;5049734;28;20021;-43
2022/03/31 01:38:41;;;;;;;27.60;11.32;;;;;;;;;;5032372;28;20028;-43
2022/03/31 01:41:07;;;;;;;31.60;11.55;;;;;;;;;;5032721;28;20026;-44
2022/03/31 01:43:32;;;;;;;22.25;10.43;;;;;;;;;;5032272;28;20029;-43
2022/03/31 01:45:58;;;;;;;28.35;10.85;;;;;;;;;;5032412;28;20465;-43
2022/03/31 01:48:23;;;;;;;24.27;10.25;;;;;;;;;;5032095;28;20029;-44
2022/03/31 01:50:50;;;;;;;25.80;11.43;;;;;;;;;;5032695;28;20021;-44
2022/03/31 01:53:15;;;;;;;37.88;10.52;;;;;;;;;;5032350;28;20018;-44
2022/03/31 01:55:40;;;;;;;29.30;11.57;;;;;;;;;;5032414;28;20514;-44
2022/03/31 01:58:07;;;;;;;24.40;11.00;;;;;;;;;;5032396;28;20072;-43
2022/03/31 02:00:32;;;;;;;28.70;10.95;;;;;;;;;;5036689;28;20471;-44
2022/03/31 02:02:59;;;;;;;25.13;11.13;;;;;;;;;;5052101;28;20056;-43
2022/03/31 02:05:24;;;;;;;24.45;10.38;;;;;;;;;;5051861;28;20049;-44
2022/03/31 02:07:52;;;;;;;27.10;11.32;;;;;;;;;;5052239;28;20036;-43
2022/03/31 02:10:18;;;;;;;27.23;11.27;;;;;;;;;;5055824;28;20017;-43
2022/03/31 02:12:43;;;;;;;29.98;12.20;;;;;;;;;;5055946;28;20094;-45
2022/03/31 02:15:10;;;;;;;24.45;11.43;;;;;;;;;;5055609;28;20021;-44
2022/03/31 02:17:35;;;;;;;29.45;10.52;;;;;;;;;;5055463;28;20029;-43
2022/03/31 02:20:01;;;;;;;25.95;11.75;;;;;;;;;;5055682;28;20474;-44
2022/03/31 02:22:26;;;;;;;30.90;11.88;;;;;;;;;;5055876;28;20053;-42
2022/03/31 02:24:51;;;;;;;31.25;10.82;;;;;;;;;;5055484;28;20025;-44
2022/03/31 02:27:17;;;;;;;24.58;10.45;;;;;;;;;;5055620;28;20039;-43
2022/03/31 02:29:42;;;;;;;26.73;11.80;;;;;;;;;;5055260;28;20348;-43
2022/03/31 02:32:08;;;;;;;35.30;12.00;;;;;;;;;;5069023;28;20020;-43
2022/03/31 02:34:34;;;;;;;28.27;11.77;;;;;;;;;;5057041;28;20439;-44
2022/03/31 02:36:59;;;;;;;26.17;12.32;;;;;;;;;;5040776;28;20020;-44
2022/03/31 02:39:24;;;;;;;28.00;11.25;;;;;;;;;;5055369;28;20076;-42
2022/03/31 02:41:50;;;;;;;25.30;11.55;;;;;;;;;;5055509;28;20028;-44
2022/03/31 02:44:16;;;;;;;22.98;10.80;;;;;;;;;;5055081;28;20025;-44
2022/03/31 02:46:42;;;;;;;33.28;12.38;;;;;;;;;;5055113;28;20037;-43
2022/03/31 02:49:08;;;;;;;22.05;10.73;;;;;;;;;;5054746;28;20522;-44
2022/03/31 02:51:34;;;;;;;27.20;11.25;;;;;;;;;;5055095;28;20021;-44
2022/03/31 02:56:43;;;;;;;23.13;10.77;;;;;;;;;;5055216;28;20487;-44
2022/03/31 02:59:08;;;;;;;24.58;11.43;;;;;;;;;;5054871;28;20017;-44
2022/03/31 03:01:33;;;;;;;27.42;11.30;;;;;;;;;;5054832;28;20450;-42
2022/03/31 03:03:59;;;;;;;25.08;11.38;;;;;;;;;;5055016;28;20504;-44
2022/03/31 03:06:24;;;;;;;32.63;11.05;;;;;;;;;;5054915;28;20033;-44
2022/03/31 03:08:50;;;;;;;30.40;11.93;;;;;;;;;;5054890;28;20064;-44
2022/03/31 03:11:17;;;;;;;24.17;11.02;;;;;;;;;;5054634;28;20052;-43
2022/03/31 03:13:43;;;;;;;27.48;11.02;;;;;;;;;;5054734;28;20391;-43
2022/03/31 03:16:09;;;;;;;25.40;11.38;;;;;;;;;;5054337;28;20024;-45
2022/03/31 03:18:34;;;;;;;28.20;11.75;;;;;;;;;;5054825;28;20025;-43
2022/03/31 03:21:00;;;;;;;29.27;12.05;;;;;;;;;;5054252;28;20021;-43
2022/03/31 03:23:25;;;;;;;24.55;10.60;;;;;;;;;;5054841;28;20056;-43
2022/03/31 03:25:51;;;;;;;22.08;11.77;;;;;;;;;;5054440;28;20040;-43
2022/03/31 03:28:16;;;;;;;30.83;11.57;;;;;;;;;;5054602;28;20021;-43
2022/03/31 03:30:41;;;;;;;35.03;12.10;;;;;;;;;;5055585;28;20353;-44
2022/03/31 03:33:06;;;;;;;30.90;12.63;;;;;;;;;;5057135;28;20025;-44
2022/03/31 03:35:32;;;;;;;33.20;12.77;;;;;;;;;;5034641;28;20030;-43
2022/03/31 03:37:57;;;;;;;32.17;13.45;;;;;;;;;;5047878;28;20029;-46
2022/03/31 03:40:23;;;;;;;37.80;13.15;;;;;;;;;;5054076;28;20112;-42
2022/03/31 03:42:48;;;;;;;40.95;13.55;;;;;;;;;;5054094;28;20032;-42
2022/03/31 03:45:14;;;;;;;29.77;12.82;;;;;;;;;;5053833;28;20013;-45
2022/03/31 03:47:39;;;;;;;36.65;13.18;;;;;;;;;;5053949;28;20021;-44
2022/03/31 03:50:06;;;;;;;36.88;14.18;;;;;;;;;;5053910;28;20029;-44
2022/03/31 03:52:31;;;;;;;30.23;12.35;;;;;;;;;;5054174;28;20020;-43
2022/03/31 03:54:57;;;;;;;21.42;12.02;;;;;;;;;;5053673;28;20021;-44
2022/03/31 03:57:23;;;;;;;29.42;11.93;;;;;;;;;;5054046;28;20488;-46
2022/03/31 03:59:48;;;;;;;30.13;11.30;;;;;;;;;;5053765;28;20021;-44
2022/03/31 04:02:14;;;;;;;33.33;12.98;;;;;;;;;;5053489;28;20027;-43
2022/03/31 04:04:39;;;;;;;29.27;12.60;;;;;;;;;;5053683;28;20063;-43
2022/03/31 04:07:05;;;;;;;26.83;12.20;;;;;;;;;;5053507;28;20088;-43
2022/03/31 04:09:30;;;;;;;26.48;11.05;;;;;;;;;;5053767;28;20020;-45
2022/03/31 04:11:55;;;;;;;33.65;12.13;;;;;;;;;;5053612;28;20468;-43
2022/03/31 04:14:21;;;;;;;31.10;11.68;;;;;;;;;;5053598;28;20021;-43
2022/03/31 04:16:47;;;;;;;35.22;14.13;;;;;;;;;;5053067;28;20384;-43
2022/03/31 04:19:12;;;;;;;27.17;13.57;;;;;;;;;;5053548;28;20380;-44
2022/03/31 04:21:38;;;;;;;31.52;12.98;;;;;;;;;;5053266;28;20064;-43
2022/03/31 04:24:04;;;;;;;33.55;12.32;;;;;;;;;;5053568;28;20023;-43
2022/03/31 04:26:30;;;;;;;30.95;11.52;;;;;;;;;;5053093;28;20029;-44
2022/03/31 04:28:55;;;;;;;23.70;12.15;;;;;;;;;;5053355;28;20025;-42
2022/03/31 04:31:21;;;;;;;27.08;12.35;;;;;;;;;;5047569;28;20030;-44
2022/03/31 04:33:46;;;;;;;24.98;10.77;;;;;;;;;;5033765;28;20022;-44
2022/03/31 04:36:11;;;;;;;20.23;10.98;;;;;;;;;;5033343;28;20524;-42
2022/03/31 04:38:37;;;;;;;31.20;11.88;;;;;;;;;;5033486;28;20113;-44
2022/03/31 04:41:02;;;;;;;26.83;11.25;;;;;;;;;;5032887;28;20028;-43
2022/03/31 04:43:27;;;;;;;31.95;11.55;;;;;;;;;;5033159;28;20022;-43
2022/03/31 04:45:53;;;;;;;25.70;11.82;;;;;;;;;;5032935;28;20087;-43
2022/03/31 04:48:18;;;;;;;28.95;11.98;;;;;;;;;;5031763;28;20108;-44
2022/03/31 04:50:43;;;;;;;29.73;12.52;;;;;;;;;;5032998;28;20021;-43
2022/03/31 04:53:10;;;;;;;31.60;11.60;;;;;;;;;;5033138;28;20025;-45
2022/03/31 04:55:35;;;;;;;30.10;12.40;;;;;;;;;;5032943;28;20561;-45
2022/03/31 04:58:00;;;;;;;26.42;11.13;;;;;;;;;;5031699;28;20109;-43
2022/03/31 05:00:25;;;;;;;26.88;11.45;;;;;;;;;;5032922;28;20075;-45
2022/03/31 05:02:51;;;;;;;28.58;10.60;;;;;;;;;;5032670;28;20101;-44
2022/03/31 05:05:16;;;;;;;28.85;12.25;;;;;;;;;;5032941;28;20412;-44
2022/03/31 05:07:42;;;;;;;22.75;10.32;;;;;;;;;;5032770;28;20025;-44
2022/03/31 05:10:07;;;;;;;32.35;10.52;;;;;;;;;;5032756;28;20018;-43
2022/03/31 05:12:32;;;;;;;31.50;11.00;;;;;;;;;;5032584;28;20522;-45
2022/03/31 05:14:58;;;;;;;33.08;10.98;;;;;;;;;;5041888;28;20028;-46
2022/03/31 05:17:23;;;;;;;30.48;11.35;;;;;;;;;;5052329;28;20017;-43
2022/03/31 05:19:48;;;;;;;23.67;11.00;;;;;;;;;;5052694;28;20082;-46
2022/03/31 05:22:14;;;;;;;28.17;11.85;;;;;;;;;;5052533;28;20368;-43
2022/03/31 05:24:39;;;;;;;26.48;10.95;;;;;;;;;;5052882;28;20107;-44
2022/03/31 05:27:04;;;;;;;24.88;11.10;;;;;;;;;;5052321;28;20060;-44
2022/03/31 05:29:30;;;;;;;33.58;11.65;;;;;;;;;;5050546;28;20037;-45
2022/03/31 05:31:57;;;;;;;35.90;12.18;;;;;;;;;;5055843;28;20071;-43
2022/03/31 05:34:22;;;;;;;32.60;12.05;;;;;;;;;;5072456;28;20024;-43
2022/03/31 05:36:48;;;;;;;31.70;11.40;;;;;;;;;;5068043;28;20027;-45
2022/03/31 05:39:13;;;;;;;38.13;13.32;;;;;;;;;;5043920;28;20037;-43
2022/03/31 05:41:38;;;;;;;28.13;13.02;;;;;;;;;;5047411;28;20020;-49
2022/03/31 05:44:04;;;;;;;32.38;11.65;;;;;;;;;;5056854;28;20025;-46
2022/03/31 05:46:29;;;;;;;44.03;13.40;;;;;;;;;;5076011;28;20086;-46
2022/03/31 05:48:55;;;;;;;32.67;13.23;;;;;;;;;;5076106;28;20044;-45
2022/03/31 05:51:20;;;;;;;44.63;11.93;;;;;;;;;;5064651;28;20104;-45
2022/03/31 05:53:46;;;;;;;42.83;11.55;;;;;;;;;;5055710;28;20059;-43
2022/03/31 05:56:11;;;;;;;31.63;12.60;;;;;;;;;;5046407;28;20176;-44
2022/03/31 05:58:37;;;;;;;40.90;12.18;;;;;;;;;;5044579;28;20051;-43
2022/03/31 06:01:04;;;;;;;38.22;12.30;;;;;;;;;;5045433;28;20829;-43
2022/03/31 06:03:30;;;;;;;33.10;12.38;;;;;;;;;;5040220;28;20101;-43
2022/03/31 06:05:55;;;;;;;31.42;13.82;;;;;;;;;;5041763;28;20120;-47
2022/03/31 06:08:21;;;;;;;40.92;13.55;;;;;;;;;;5047173;28;20104;-48
2022/03/31 06:10:47;;;;;;;34.38;12.02;;;;;;;;;;5036424;28;20424;-43
2022/03/31 06:13:12;;;;;;;34.05;12.35;;;;;;;;;;5037085;28;20021;-46
2022/03/31 06:15:38;;;;;;;34.10;12.45;;;;;;;;;;5035574;28;20025;-45
2022/03/31 06:18:03;;;;;;;34.10;13.25;;;;;;;;;;5041502;28;20049;-45
2022/03/31 06:20:30;;;;;;;36.75;14.07;;;;;;;;;;5034216;28;20491;-43
2022/03/31 06:22:56;;;;;;;29.65;12.15;;;;;;;;;;5035687;28;20032;-42
2022/03/31 06:25:21;;;;;;;43.38;13.85;;;;;;;;;;5033666;28;20029;-41
2022/03/31 06:27:47;;;;;;;29.63;12.68;;;;;;;;;;5034517;28;20037;-41
2022/03/31 06:30:12;;;;;;;46.03;13.30;;;;;;;;;;5034109;28;20464;-42
2022/03/31 06:32:38;;;;;;;46.80;13.32;;;;;;;;;;5048143;28;20096;-43
2022/03/31 06:35:03;;;;;;;33.67;11.82;;;;;;;;;;5035733;28;20025;-41
2022/03/31 06:37:29;;;;;;;31.42;11.73;;;;;;;;;;5045352;28;20145;-41
2022/03/31 06:39:54;;;;;;;36.55;12.38;;;;;;;;;;5054080;28;20498;-41
2022/03/31 06:42:19;;;;;;;260.17;217.00;;;;;;;;;;5054988;28;20017;-42
2022/03/31 06:44:45;;;;;;;287.98;236.50;;;;;;;;;;5055292;28;20083;-41
2022/03/31 06:47:10;;;;;;;772.72;338.50;;;;;;;;;;5054959;28;20033;-43
2022/03/31 06:51:51;;;;;;;37.22;13.00;;;;;;;;;;5069988;28;20384;-43
2022/03/31 06:54:18;;;;;;;33.67;13.52;;;;;;;;;;5057412;28;20116;-42
2022/03/31 06:56:43;;;;;;;27.58;12.50;;;;;;;;;;5048719;28;20045;-41
2022/03/31 06:59:09;;;;;;;60.22;23.67;;;;;;;;;;5041782;28;20056;-39
2022/03/31 07:01:34;;;;;;;37.97;16.70;;;;;;;;;;5047318;28;20040;-42
2022/03/31 07:04:00;;;;;;;25.33;11.20;;;;;;;;;;5048717;28;20028;-45
2022/03/31 07:06:25;;;;;;;19.67;12.15;;;;;;;;;;5045226;28;20032;-44
2022/03/31 07:08:50;;;;;;;29.45;14.40;;;;;;;;;;5045084;28;20022;-45
2022/03/31 07:11:16;;;;;;;28.98;13.88;;;;;;;;;;5047603;28;20028;-45
2022/03/31 07:13:43;;;;;;;31.30;13.93;;;;;;;;;;5044167;28;20025;-44
2022/03/31 07:16:09;;;;;;;27.00;13.65;;;;;;;;;;5048717;28;20034;-45
2022/03/31 07:18:34;;;;;;;35.35;14.68;;;;;;;;;;5045079;28;20025;-44
2022/03/31 07:20:59;;;;;;;34.08;14.57;;;;;;;;;;5047064;28;20033;-44
2022/03/31 07:23:26;;;;;;;33.78;16.25;;;;;;;;;;5048511;28;20044;-40
2022/03/31 07:25:55;;;;;;;32.70;14.52;;;;;;;;;;5049391;28;20364;-39
2022/03/31 07:28:21;;;;;;;29.42;14.55;;;;;;;;;;5047683;28;20021;-45
2022/03/31 07:30:47;;;;;;;32.65;14.55;;;;;;;;;;5049984;28;20044;-48
2022/03/31 07:33:13;;;;;;;29.67;14.13;;;;;;;;;;5042543;28;20029;-45
2022/03/31 07:35:39;;;;;;;32.63;14.52;;;;;;;;;;5047712;28;20480;-45
2022/03/31 07:38:07;;;;;;;39.05;14.55;;;;;;;;;;5047824;28;20021;-46
2022/03/31 07:40:33;;;;;;;26.02;15.23;;;;;;;;;;5046579;28;20023;-44
2022/03/31 07:42:58;;;;;;;41.42;14.35;;;;;;;;;;5046426;28;20033;-43
2022/03/31 07:45:24;;;;;;;32.22;13.68;;;;;;;;;;5046759;28;20024;-45
2022/03/31 07:47:50;;;;;;;32.13;13.73;;;;;;;;;;5046581;28;20017;-48
2022/03/31 07:50:16;;;;;;;26.77;14.30;;;;;;;;;;5045616;28;20405;-45
2022/03/31 07:52:42;;;;;;;35.65;14.48;;;;;;;;;;5046463;28;20060;-48
2022/03/31 07:55:09;;;;;;;28.98;14.02;;;;;;;;;;5034608;28;20049;-43
2022/03/31 07:57:34;;;;;;;32.33;14.02;;;;;;;;;;5046156;28;20021;-47
2022/03/31 08:00:00;;;;;;;24.67;12.93;;;;;;;;;;5046325;28;20032;-48
2022/03/31 08:02:25;;;;;;;29.23;13.05;;;;;;;;;;5036351;28;20025;-44
2022/03/31 08:04:52;;;;;;;30.95;14.43;;;;;;;;;;5034174;28;20110;-39
2022/03/31 08:07:17;;;;;;;31.92;11.63;;;;;;;;;;5035083;28;20465;-39
2022/03/31 08:09:43;;;;;;;33.60;15.10;;;;;;;;;;5034578;28;20100;-44
2022/03/31 08:12:08;;;;;;;35.50;12.52;;;;;;;;;;5034697;28;20025;-45
2022/03/31 08:14:34;;;;;;;30.35;12.57;;;;;;;;;;5034125;28;20049;-42
2022/03/31 08:16:59;;;;;;;34.20;14.43;;;;;;;;;;5034866;28;20029;-44
2022/03/31 08:19:24;;;;;;;29.35;12.10;;;;;;;;;;5033029;28;20061;-45
2022/03/31 08:21:50;;;;;;;33.05;12.88;;;;;;;;;;5034539;28;20487;-44
2022/03/31 08:24:16;;;;;;;36.08;14.05;;;;;;;;;;5034388;28;20021;-44
2022/03/31 08:26:42;;;;;;;31.40;12.75;;;;;;;;;;5034428;28;20022;-45
2022/03/31 08:29:08;;;;;;;25.42;12.05;;;;;;;;;;5031424;28;20361;-47
2022/03/31 08:31:34;;;;;;;17.70;9.90;;;;;;;;;;5038270;28;20040;-40
2022/03/31 08:34:00;;;;;;;22.38;10.63;;;;;;;;;;5033729;28;20017;-42
2022/03/31 08:36:26;;;;;;;31.15;12.30;;;;;;;;;;5034399;28;20027;-45
2022/03/31 08:38:51;;;;;;;27.77;13.23;;;;;;;;;;5034507;28;20096;-45
2022/03/31 08:41:18;;;;;;;28.00;14.02;;;;;;;;;;5033874;28;20104;-44
2022/03/31 08:43:44;;;;;;;29.75;14.40;;;;;;;;;;5022350;28;20022;-43
2022/03/31 08:46:10;;;;;;;30.38;14.38;;;;;;;;;;5023850;28;20420;-43
2022/03/31 08:48:36;;;;;;;33.70;15.88;;;;;;;;;;5025768;28;20044;-43
2022/03/31 08:51:01;;;;;;;37.95;15.10;;;;;;;;;;5027411;28;20049;-45
2022/03/31 08:53:27;;;;;;;38.80;16.38;;;;;;;;;;5033622;28;20024;-43
2022/03/31 08:55:52;;;;;;;32.85;15.75;;;;;;;;;;5033844;28;20049;-42
2022/03/31 08:58:17;;;;;;;32.03;17.52;;;;;;;;;;5039407;28;20033;-42
2022/03/31 09:00:43;;;;;;;35.83;17.55;;;;;;;;;;5037592;28;20484;-43
2022/03/31 09:03:09;;;;;;;29.70;17.00;;;;;;;;;;5033171;28;20051;-43
2022/03/31 09:05:36;;;;;;;36.03;17.73;;;;;;;;;;5033450;28;20526;-46
2022/03/31 09:08:02;;;;;;;31.50;17.50;;;;;;;;;;5027535;28;20017;-45
2022/03/31 09:10:29;;;;;;;37.33;18.50;;;;;;;;;;5033503;28;20036;-42
2022/03/31 09:12:54;;;;;;;36.55;17.77;;;;;;;;;;5030987;28;20068;-45
2022/03/31 09:15:20;;;;;;;35.17;19.38;;;;;;;;;;5031497;28;20516;-42
2022/03/31 09:17:45;;;;;;;39.75;22.50;;;;;;;;;;5033199;28;20067;-41
2022/03/31 09:20:10;;;;;;;44.38;22.83;;;;;;;;;;5033277;28;20022;-41
2022/03/31 09:22:48;;;;;;;44.42;20.45;;;;;;;;;;5033644;28;20096;-41
2022/03/31 09:25:22;;;;;;;32.08;17.80;;;;;;;;;;5026960;28;20078;-41
2022/03/31 09:27:47;;;;;;;29.88;15.75;;;;;;;;;;5033499;28;20486;-41
2022/03/31 09:30:12;;;;;;;31.73;16.42;;;;;;;;;;5032908;28;20033;-41
2022/03/31 09:32:50;;;;;;;41.13;16.90;;;;;;;;;;5037783;28;20021;-42
2022/03/31 09:35:20;;;;;;;32.88;17.30;;;;;;;;;;5031678;28;20167;-42
2022/03/31 09:37:48;;;;;;;32.15;16.60;;;;;;;;;;5033085;28;20453;-41
2022/03/31 09:40:13;;;;;;;41.90;17.05;;;;;;;;;;5023958;28;20438;-41
2022/03/31 09:42:38;;;;;;;36.63;17.17;;;;;;;;;;5029896;28;20025;-41
2022/03/31 09:45:04;;;;;;;38.47;16.30;;;;;;;;;;5031247;28;20032;-41
2022/03/31 09:47:29;;;;;;;35.00;16.75;;;;;;;;;;5044645;28;20101;-41
2022/03/31 09:49:55;;;;;;;33.10;16.90;;;;;;;;;;5033533;28;20082;-42
2022/03/31 09:52:20;;;;;;;33.30;17.10;;;;;;;;;;5039137;28;20025;-42
2022/03/31 09:54:47;;;;;;;38.63;18.48;;;;;;;;;;5024336;28;20032;-41
2022/03/31 09:57:13;;;;;;;36.25;17.88;;;;;;;;;;5029035;28;20036;-41
2022/03/31 09:59:39;;;;;;;32.15;16.25;;;;;;;;;;5034904;28;20030;-41
2022/03/31 10:02:06;;;;;;;31.77;15.55;;;;;;;;;;5034658;28;20108;-42
2022/03/31 10:04:32;;;;;;;30.48;14.82;;;;;;;;;;5023769;28;20026;-41
2022/03/31 10:06:57;;;;;;;32.90;14.95;;;;;;;;;;5023777;28;20025;-41
2022/03/31 10:09:23;;;;;;;31.42;15.85;;;;;;;;;;5018831;28;20022;-40
2022/03/31 10:11:52;;;;;;;34.60;15.65;;;;;;;;;;5026552;28;20065;-41
2022/03/31 10:14:33;;;;;;;34.72;16.60;;;;;;;;;;5032342;28;20014;-41
2022/03/31 10:17:00;;;;;;;31.90;15.73;;;;;;;;;;5030495;28;20116;-41
2022/03/31 10:19:35;;;;;;;36.08;14.63;;;;;;;;;;5023853;28;20065;-41
2022/03/31 10:22:02;;;;;;;36.70;16.42;;;;;;;;;;5028860;28;20029;-41
2022/03/31 10:24:44;;;;;;;36.78;17.20;;;;;;;;;;5023152;28;20013;-41
2022/03/31 10:27:13;;;;;;;37.55;15.65;;;;;;;;;;5032471;28;20018;-41
2022/03/31 10:29:42;;;;;;;35.25;15.13;;;;;;;;;;5018904;28;20096;-41
2022/03/31 10:32:14;;;;;;;28.92;15.00;;;;;;;;;;5039289;28;20014;-41
2022/03/31 10:34:44;;;;;;;30.95;16.15;;;;;;;;;;5030802;28;20033;-42
2022/03/31 10:37:10;;;;;;;34.67;15.65;;;;;;;;;;5027340;28;20025;-42
2022/03/31 10:39:35;;;;;;;29.42;13.75;;;;;;;;;;5030679;28;20032;-43
2022/03/31 10:42:03;;;;;;;29.83;14.50;;;;;;;;;;5025206;28;20025;-42
2022/03/31 10:44:28;;;;;;;25.20;14.18;;;;;;;;;;5019079;28;20022;-41
2022/03/31 10:47:01;;;;;;;26.92;13.00;;;;;;;;;;5016210;28;20022;-42
2022/03/31 10:49:27;;;;;;;35.38;13.35;;;;;;;;;;5022735;28;20048;-42
2022/03/31 10:51:53;;;;;;;25.02;15.38;;;;;;;;;;5028984;28;20124;-42
2022/03/31 10:54:29;;;;;;;32.72;14.57;;;;;;;;;;5025521;28;20025;-42
2022/03/31 10:57:03;;;;;;;34.22;14.07;;;;;;;;;;5026045;28;20022;-43
2022/03/31 10:59:28;;;;;;;36.63;16.52;;;;;;;;;;5023228;28;20113;-42
2022/03/31 11:01:54;;;;;;;24.42;13.05;;;;;;;;;;5026372;28;20101;-43
2022/03/31 11:04:19;;;;;;;27.65;13.82;;;;;;;;;;5026425;28;20025;-41
2022/03/31 11:06:49;;;;;;;27.27;14.70;;;;;;;;;;5030502;28;20152;-41
2022/03/31 11:09:14;;;;;;;;;;;;;;;;;;5031559;28;20499;-40
2022/03/31 11:11:40;;;;;;;26.60;13.30;;;;;;;;;;5033482;28;19925;-41
2022/03/31 11:14:08;;;;;;;26.50;13.80;;;;;;;;;;5030841;28;20384;-40
2022/03/31 11:16:37;;;;;;;33.00;14.35;;;;;;;;;;5026727;28;20472;-40
2022/03/31 11:19:04;;;;;;;38.00;15.85;;;;;;;;;;5030053;28;20025;-40
2022/03/31 11:21:37;;;;;;;33.38;14.82;;;;;;;;;;5023940;28;20097;-40
2022/03/31 11:24:02;;;;;;;33.95;15.00;;;;;;;;;;5030856;28;20033;-40
2022/03/31 11:26:28;;;;;;;37.20;15.55;;;;;;;;;;5030759;28;20083;-40
2022/03/31 11:28:54;;;;;;;29.63;14.68;;;;;;;;;;5028062;28;20423;-40
2022/03/31 11:31:20;;;;;;;43.45;15.15;;;;;;;;;;5030884;28;20112;-39
2022/03/31 11:33:46;;;;;;;29.13;13.88;;;;;;;;;;5028649;28;20464;-40
2022/03/31 11:36:11;;;;;;;33.78;14.70;;;;;;;;;;5029560;28;20034;-40
2022/03/31 11:38:37;;;;;;;28.42;13.73;;;;;;;;;;5033619;28;20106;-39
2022/03/31 11:41:03;;;;;;;34.58;13.57;;;;;;;;;;5037971;28;20021;-39
2022/03/31 11:43:29;;;;;;;36.85;14.23;;;;;;;;;;5037399;28;20427;-39
2022/03/31 11:45:55;;;;;;;35.40;14.98;;;;;;;;;;5024473;28;20088;-38
2022/03/31 11:48:22;;;;;;;32.13;15.93;;;;;;;;;;5031727;28;20092;-40
2022/03/31 11:50:58;;;;;;;38.10;16.10;;;;;;;;;;5037339;28;20064;-40
2022/03/31 11:53:34;;;;;;;30.92;17.17;;;;;;;;;;5031419;28;20024;-40
2022/03/31 11:56:00;;;;;;;33.58;17.63;;;;;;;;;;5034551;28;20362;-40
2022/03/31 11:58:26;;;;;;;26.20;16.40;;;;;;;;;;5035114;28;20086;-40
2022/03/31 12:00:51;;;;;;;39.58;18.45;;;;;;;;;;5037328;28;20021;-40
2022/03/31 12:03:17;;;;;;;32.63;17.50;;;;;;;;;;5039963;28;20075;-40
2022/03/31 12:05:56;;;;;;;35.72;16.90;;;;;;;;;;5028414;28;20049;-40
2022/03/31 12:08:22;;;;;;;33.88;17.52;;;;;;;;;;5032062;28;20025;-40
2022/03/31 12:10:49;;;;;;;34.95;17.90;;;;;;;;;;5028977;28;20504;-41
2022/03/31 12:13:14;;;;;;;37.92;17.15;;;;;;;;;;5033159;28;20022;-42
2022/03/31 12:15:41;;;;;;;39.08;19.02;;;;;;;;;;5032446;28;20477;-41
2022/03/31 12:18:08;;;;;;;36.20;17.98;;;;;;;;;;5045034;28;20022;-41
2022/03/31 12:20:36;;;;;;;34.05;17.70;;;;;;;;;;5035791;28;20014;-42
2022/03/31 12:23:03;;;;;;;35.85;17.77;;;;;;;;;;5036117;28;20116;-43
2022/03/31 12:25:35;;;;;;;35.40;16.90;;;;;;;;;;5033302;28;20116;-40
2022/03/31 12:28:04;;;;;;;37.80;16.42;;;;;;;;;;5031097;28;20037;-41
2022/03/31 12:30:47;;;;;;;41.85;18.33;;;;;;;;;;5032896;28;20500;-41
2022/03/31 12:33:18;;;;;;;41.38;17.65;;;;;;;;;;5022276;28;20059;-41
2022/03/31 12:35:51;;;;;;;33.03;16.90;;;;;;;;;;5032615;28;20047;-40
2022/03/31 12:38:16;;;;;;;36.65;17.38;;;;;;;;;;5031135;28;20388;-40
2022/03/31 12:40:44;;;;;;;38.22;16.15;;;;;;;;;;5031073;28;20029;-41
2022/03/31 12:43:10;;;;;;;42.83;18.67;;;;;;;;;;5025852;28;20028;-41
2022/03/31 12:45:36;;;;;;;33.55;17.63;;;;;;;;;;5032781;28;20017;-39
2022/03/31 12:48:09;;;;;;;38.60;18.70;;;;;;;;;;5031811;28;20029;-41
2022/03/31 12:50:34;;;;;;;42.55;20.80;;;;;;;;;;5030208;28;20095;-41
2022/03/31 12:53:01;;;;;;;58.53;23.55;;;;;;;;;;5030973;28;20025;-41
2022/03/31 12:55:27;;;;;;;44.40;22.30;;;;;;;;;;5031332;28;20416;-41
2022/03/31 12:57:54;;;;;;;44.40;23.42;;;;;;;;;;5031880;28;20574;-41
2022/03/31 13:00:19;;;;;;;43.65;22.63;;;;;;;;;;5029624;28;20025;-41
2022/03/31 13:02:45;;;;;;;44.70;24.23;;;;;;;;;;5030688;28;20027;-41
2022/03/31 13:05:10;;;;;;;51.00;25.98;;;;;;;;;;5028999;28;20013;-41
2022/03/31 13:07:35;;;;;;;55.35;26.42;;;;;;;;;;5028920;28;20013;-41
2022/03/31 13:10:05;;;;;;;49.00;24.98;;;;;;;;;;5033135;28;20025;-41
2022/03/31 13:12:30;;;;;;;;;;;;;;;;;;5029751;28;20096;-41
2022/03/31 13:14:56;;;;;;;44.28;22.88;;;;;;;;;;5032209;28;20324;-41
2022/03/31 13:17:22;;;;;;;42.97;24.88;;;;;;;;;;5030556;28;20063;-41
2022/03/31 13:19:48;;;;;;;45.03;25.73;;;;;;;;;;5030841;28;20033;-41
2022/03/31 13:22:17;;;;;;;44.70;22.02;;;;;;;;;;5039005;28;20103;-41
2022/03/31 13:24:43;;;;;;;48.40;23.08;;;;;;;;;;5033981;28;20162;-41
2022/03/31 13:27:08;;;;;;;38.83;22.17;;;;;;;;;;5030037;28;20038;-41
2022/03/31 13:29:34;;;;;;;43.97;20.73;;;;;;;;;;5031828;28;20024;-41
2022/03/31 13:32:00;;;;;;;37.45;20.23;;;;;;;;;;5032750;28;20033;-41
2022/03/31 13:34:27;;;;;;;43.60;22.80;;;;;;;;;;5037509;28;20057;-41
2022/03/31 13:36:53;;;;;;;35.33;20.92;;;;;;;;;;5027180;28;20438;-40
2022/03/31 13:39:19;;;;;;;40.55;20.48;;;;;;;;;;5027783;28;20191;-40
2022/03/31 13:41:44;;;;;;;39.85;19.95;;;;;;;;;;5030362;28;20108;-41
2022/03/31 13:44:12;;;;;;;43.55;20.88;;;;;;;;;;5030017;28;20366;-41
2022/03/31 13:46:37;;;;;;;42.45;22.55;;;;;;;;;;5028918;28;20017;-41
2022/03/31 13:49:02;;;;;;;42.13;23.13;;;;;;;;;;5029285;28;20022;-41
2022/03/31 13:51:28;;;;;;;47.08;25.83;;;;;;;;;;5030718;28;20057;-41
2022/03/31 13:53:55;;;;;;;49.45;27.05;;;;;;;;;;5028227;28;20040;-41
2022/03/31 13:56:21;;;;;;;44.30;27.17;;;;;;;;;;5030046;28;20033;-41
2022/03/31 14:01:34;;;;;;;44.28;27.38;;;;;;;;;;5029056;28;20392;-40
2022/03/31 14:04:00;;;;;;;49.05;28.35;;;;;;;;;;5027767;28;20071;-40
2022/03/31 14:06:28;;;;;;;53.28;29.77;;;;;;;;;;5028887;28;20021;-41
2022/03/31 14:08:53;;;;;;;45.42;29.92;;;;;;;;;;5027280;28;20415;-41
2022/03/31 14:11:19;;;;;;;52.55;30.38;;;;;;;;;;5032268;28;20034;-42
2022/03/31 14:13:45;;;;;;;55.60;31.85;;;;;;;;;;5033195;28;20083;-41
2022/03/31 14:16:10;;;;;;;51.10;29.83;;;;;;;;;;5036872;28;20021;-40
2022/03/31 14:18:38;;;;;;;52.63;30.40;;;;;;;;;;5034090;28;20543;-41
2022/03/31 14:21:04;;;;;;;53.33;29.23;;;;;;;;;;5030344;28;20487;-41